createdAt,value
2022-10-01T19:33:04.853Z,164.00
2022-10-01T19:34:04.833Z,156.00
2022-10-01T19:35:04.828Z,148.00
2022-10-01T19:36:04.809Z,152.00
2022-10-01T19:37:04.805Z,176.00
2022-10-01T19:38:04.791Z,192.00
2022-10-01T19:39:04.779Z,208.00
2022-10-01T19:40:04.767Z,212.00
2022-10-01T19:41:04.756Z,220.00
2022-10-01T19:42:04.745Z,212.00
2022-10-01T19:43:04.833Z,212.00
2022-10-01T19:44:04.719Z,196.00
2022-10-01T19:45:04.735Z,180.00
2022-10-01T19:46:04.703Z,180.00
2022-10-01T19:47:04.744Z,180.00
2022-10-01T19:48:04.686Z,184.00
2022-10-01T19:49:04.668Z,160.00
2022-10-01T19:50:04.658Z,140.00
2022-10-01T19:51:04.654Z,132.00
2022-10-01T19:52:04.640Z,148.00
2022-10-01T19:53:04.634Z,172.00
2022-10-01T19:54:04.622Z,204.00
2022-10-01T19:55:04.711Z,228.00
2022-10-01T19:56:04.599Z,232.00
2022-10-01T19:57:04.596Z,272.00
2022-10-01T19:58:04.581Z,284.00
2022-10-01T19:59:04.572Z,260.00
2022-10-01T20:00:04.561Z,216.00
2022-10-01T20:01:04.619Z,184.00
2022-10-01T20:02:04.573Z,156.00
2022-10-01T20:03:04.539Z,128.00
2022-10-01T20:04:04.528Z,108.00
2022-10-01T20:05:04.518Z,100.00
2022-10-01T20:06:04.507Z,92.00
2022-10-01T20:07:04.502Z,92.00
2022-10-01T20:08:04.485Z,92.00
2022-10-01T20:09:04.485Z,84.00
2022-10-01T20:10:05.856Z,76.00
2022-10-01T20:11:04.464Z,72.00
2022-10-01T20:12:04.451Z,72.00
2022-10-01T20:13:04.446Z,80.00
2022-10-01T20:14:04.432Z,76.00
2022-10-01T20:15:04.422Z,76.00
2022-10-01T20:16:04.429Z,68.00
2022-10-01T20:17:04.408Z,56.00
2022-10-01T20:18:04.388Z,40.00
2022-10-01T20:19:04.381Z,36.00
2022-10-01T20:20:04.376Z,32.00
2022-10-01T20:21:04.466Z,36.00
2022-10-01T20:22:04.354Z,36.00
2022-10-01T20:23:04.341Z,36.00
2022-10-01T20:24:04.340Z,36.00
2022-10-01T20:25:04.330Z,40.00
2022-10-01T20:26:04.311Z,36.00
2022-10-01T20:27:04.306Z,36.00
2022-10-01T20:28:04.362Z,36.00
2022-10-01T20:29:04.283Z,32.00
2022-10-01T20:30:04.278Z,32.00
2022-10-01T20:31:04.385Z,32.00
2022-10-01T20:32:04.257Z,32.00
2022-10-01T20:33:04.244Z,32.00
2022-10-01T20:34:04.240Z,32.00
2022-10-01T20:35:04.225Z,28.00
2022-10-01T20:36:04.213Z,24.00
2022-10-01T20:37:04.205Z,20.00
2022-10-01T20:38:04.202Z,24.00
2022-10-01T20:39:04.189Z,20.00
2022-10-01T20:40:04.179Z,20.00
2022-10-01T20:41:04.265Z,20.00
2022-10-01T20:42:04.158Z,16.00
2022-10-01T20:43:04.148Z,16.00
2022-10-01T20:44:04.139Z,12.00
2022-10-01T20:45:04.134Z,12.00
2022-10-01T20:46:04.181Z,12.00
2022-10-01T20:47:04.108Z,12.00
2022-10-01T20:48:04.097Z,12.00
2022-10-01T20:49:04.092Z,12.00
2022-10-01T20:50:06.932Z,8.00
2022-10-01T20:51:04.164Z,8.00
2022-10-01T20:52:04.054Z,8.00
2022-10-01T20:53:04.071Z,8.00
2022-10-01T20:54:04.037Z,8.00
2022-10-01T20:55:04.027Z,8.00
2022-10-01T20:56:04.017Z,8.00
2022-10-01T20:57:04.010Z,4.00
2022-10-01T20:58:03.997Z,4.00
2022-10-01T20:59:03.985Z,4.00
2022-10-01T21:00:03.975Z,4.00
2022-10-01T21:01:04.156Z,4.00
2022-10-01T21:02:04.013Z,4.00
2022-10-01T21:03:03.951Z,0.00
2022-10-01T21:04:03.936Z,4.00
2022-10-01T21:05:03.928Z,4.00
2022-10-01T21:06:03.917Z,0.00
2022-10-01T21:07:03.907Z,8.00
2022-10-01T21:08:03.893Z,4.00
2022-10-01T21:09:03.885Z,4.00
2022-10-01T21:10:03.872Z,4.00
2022-10-01T21:11:03.864Z,8.00
2022-10-01T21:12:03.854Z,8.00
2022-10-01T21:13:03.841Z,8.00
2022-10-01T21:14:03.829Z,8.00
2022-10-01T21:15:03.819Z,4.00
2022-10-01T21:16:03.858Z,4.00
2022-10-01T21:17:03.803Z,4.00
2022-10-01T21:18:03.791Z,4.00
2022-10-01T21:19:03.785Z,4.00
2022-10-01T21:20:03.770Z,4.00
2022-10-01T21:21:03.764Z,4.00
2022-10-01T21:22:03.746Z,8.00
2022-10-01T21:23:03.738Z,8.00
2022-10-01T21:24:03.728Z,8.00
2022-10-01T21:25:03.719Z,8.00
2022-10-01T21:26:03.706Z,8.00
2022-10-01T21:27:03.693Z,8.00
2022-10-01T21:28:03.731Z,8.00
2022-10-01T21:29:03.673Z,4.00
2022-10-01T21:30:03.660Z,8.00
2022-10-01T21:31:03.658Z,4.00
2022-10-01T21:32:03.645Z,4.00
2022-10-01T21:33:03.633Z,4.00
2022-10-01T21:34:03.624Z,4.00
2022-10-01T21:35:03.612Z,4.00
2022-10-01T21:36:03.597Z,4.00
2022-10-01T21:37:03.592Z,4.00
2022-10-01T21:38:03.680Z,4.00
2022-10-01T21:39:03.566Z,4.00
2022-10-01T21:40:03.558Z,4.00
2022-10-01T21:41:03.544Z,4.00
2022-10-01T21:42:03.537Z,4.00
2022-10-01T21:43:03.525Z,4.00
2022-10-01T21:44:05.107Z,4.00
2022-10-01T21:45:03.506Z,4.00
2022-10-01T21:46:03.530Z,4.00
2022-10-01T21:47:03.484Z,4.00
2022-10-01T21:48:03.474Z,4.00
2022-10-01T21:49:03.566Z,4.00
2022-10-01T21:50:03.451Z,4.00
2022-10-01T21:51:03.438Z,4.00
2022-10-01T21:52:03.435Z,4.00
2022-10-01T21:53:03.418Z,4.00
2022-10-01T21:54:03.406Z,4.00
2022-10-01T21:55:03.397Z,4.00
2022-10-01T21:56:03.385Z,4.00
2022-10-01T21:57:03.394Z,4.00
2022-10-01T21:58:03.366Z,4.00
2022-10-01T21:59:03.359Z,4.00
2022-10-01T22:00:03.349Z,4.00
2022-10-01T22:01:03.380Z,4.00
2022-10-01T22:02:03.366Z,4.00
2022-10-01T22:03:03.308Z,4.00
2022-10-01T22:04:03.299Z,4.00
2022-10-01T22:05:03.287Z,4.00
2022-10-01T22:06:03.273Z,4.00
2022-10-01T22:07:03.269Z,4.00
2022-10-01T22:08:03.250Z,4.00
2022-10-01T22:09:03.345Z,4.00
2022-10-01T22:10:03.236Z,4.00
2022-10-01T22:11:03.224Z,4.00
2022-10-01T22:12:03.214Z,4.00
2022-10-01T22:13:03.201Z,4.00
2022-10-01T22:14:03.184Z,4.00
2022-10-01T22:15:03.177Z,4.00
2022-10-01T22:16:03.225Z,4.00
2022-10-01T22:17:03.159Z,4.00
2022-10-01T22:18:03.149Z,4.00
2022-10-01T22:19:03.150Z,4.00
2022-10-01T22:20:03.126Z,4.00
2022-10-01T22:21:03.118Z,4.00
2022-10-01T22:22:03.099Z,4.00
2022-10-01T22:23:03.096Z,4.00
2022-10-01T22:24:03.082Z,4.00
2022-10-01T22:25:03.068Z,4.00
2022-10-01T22:26:03.059Z,4.00
2022-10-01T22:27:03.045Z,4.00
2022-10-01T22:28:03.069Z,4.00
2022-10-01T22:29:03.025Z,4.00
2022-10-01T22:30:03.019Z,4.00
2022-10-01T22:31:03.008Z,4.00
2022-10-01T22:32:03.055Z,4.00
2022-10-01T22:33:02.986Z,4.00
2022-10-01T22:34:03.071Z,4.00
2022-10-01T22:35:02.962Z,4.00
2022-10-01T22:36:02.954Z,4.00
2022-10-01T22:37:02.937Z,4.00
2022-10-01T22:38:02.930Z,4.00
2022-10-01T22:39:02.916Z,4.00
2022-10-01T22:40:02.909Z,4.00
2022-10-01T22:41:02.897Z,4.00
2022-10-01T22:42:02.884Z,4.00
2022-10-01T22:43:02.874Z,4.00
2022-10-01T22:44:02.862Z,4.00
2022-10-01T22:45:02.853Z,4.00
2022-10-01T22:46:02.914Z,4.00
2022-10-01T22:47:02.827Z,4.00
2022-10-01T22:48:02.816Z,4.00
2022-10-01T22:49:02.908Z,4.00
2022-10-01T22:50:02.833Z,4.00
2022-10-01T22:51:02.814Z,4.00
2022-10-01T22:52:02.807Z,4.00
2022-10-01T22:53:02.767Z,4.00
2022-10-01T22:54:02.755Z,4.00
2022-10-01T22:55:02.740Z,4.00
2022-10-01T22:56:02.728Z,4.00
2022-10-01T22:57:02.731Z,4.00
2022-10-01T22:58:02.705Z,4.00
2022-10-01T22:59:02.695Z,4.00
2022-10-01T23:00:02.684Z,4.00
2022-10-01T23:01:02.725Z,4.00
2022-10-01T23:02:02.686Z,4.00
2022-10-01T23:03:02.663Z,4.00
2022-10-01T23:04:02.643Z,4.00
2022-10-01T23:05:02.631Z,4.00
2022-10-01T23:06:02.623Z,4.00
2022-10-01T23:07:02.610Z,4.00
2022-10-01T23:08:02.598Z,4.00
2022-10-01T23:09:02.589Z,4.00
2022-10-01T23:10:02.679Z,4.00
2022-10-01T23:11:02.574Z,4.00
2022-10-01T23:12:02.555Z,4.00
2022-10-01T23:13:02.544Z,4.00
2022-10-01T23:14:02.532Z,4.00
2022-10-01T23:15:02.517Z,4.00
2022-10-01T23:16:02.658Z,4.00
2022-10-01T23:17:02.500Z,4.00
2022-10-01T23:18:02.487Z,4.00
2022-10-01T23:19:02.473Z,4.00
2022-10-01T23:20:02.561Z,4.00
2022-10-01T23:21:02.453Z,4.00
2022-10-01T23:22:02.438Z,4.00
2022-10-01T23:23:02.429Z,4.00
2022-10-01T23:24:02.426Z,4.00
2022-10-01T23:25:02.411Z,4.00
2022-10-01T23:26:02.398Z,4.00
2022-10-01T23:27:02.389Z,4.00
2022-10-01T23:28:02.414Z,4.00
2022-10-01T23:29:02.371Z,4.00
2022-10-01T23:30:02.453Z,4.00
2022-10-01T23:31:02.345Z,4.00
2022-10-01T23:32:02.398Z,4.00
2022-10-01T23:33:02.318Z,4.00
2022-10-01T23:34:02.847Z,4.00
2022-10-01T23:35:02.295Z,4.00
2022-10-01T23:36:02.284Z,4.00
2022-10-01T23:37:02.274Z,4.00
2022-10-01T23:38:02.260Z,4.00
2022-10-01T23:39:02.254Z,4.00
2022-10-01T23:40:02.341Z,4.00
2022-10-01T23:41:02.227Z,4.00
2022-10-01T23:42:02.224Z,4.00
2022-10-01T23:43:02.211Z,4.00
2022-10-01T23:44:02.195Z,4.00
2022-10-01T23:45:02.185Z,4.00
2022-10-01T23:46:02.281Z,4.00
2022-10-01T23:47:02.161Z,4.00
2022-10-01T23:48:02.154Z,4.00
2022-10-01T23:49:02.139Z,4.00
2022-10-01T23:50:02.252Z,4.00
2022-10-01T23:51:02.118Z,4.00
2022-10-01T23:52:02.107Z,4.00
2022-10-01T23:53:02.102Z,4.00
2022-10-01T23:54:02.084Z,4.00
2022-10-01T23:55:02.068Z,4.00
2022-10-01T23:56:02.062Z,4.00
2022-10-01T23:57:02.051Z,4.00
2022-10-01T23:58:03.311Z,4.00
2022-10-01T23:59:02.029Z,4.00
